createdAt,value
2023-04-17T00:01:32.832Z,100.00
2023-04-17T00:13:33.282Z,100.00
2023-04-17T00:25:33.713Z,100.00
2023-04-17T00:37:34.174Z,100.00
2023-04-17T00:49:35.034Z,100.00
2023-04-17T01:01:35.131Z,100.00
2023-04-17T01:13:35.547Z,100.00
2023-04-17T01:25:36.039Z,100.00
2023-04-17T01:37:36.415Z,100.00
2023-04-17T01:49:36.870Z,100.00
2023-04-17T02:01:37.443Z,100.00
2023-04-17T02:13:37.824Z,100.00
2023-04-17T02:25:38.249Z,100.00
2023-04-17T02:37:38.685Z,100.00
2023-04-17T02:49:39.140Z,100.00
2023-04-17T03:01:39.659Z,100.00
2023-04-17T03:13:40.061Z,100.00
2023-04-17T03:25:40.550Z,100.00
2023-04-17T03:37:40.965Z,100.00
2023-04-17T03:49:41.477Z,100.00
2023-04-17T04:01:41.849Z,100.00
2023-04-17T04:13:42.304Z,100.00
2023-04-17T04:25:42.823Z,100.00
2023-04-17T04:37:43.240Z,100.00
2023-04-17T04:49:43.760Z,100.00
2023-04-17T05:01:44.251Z,100.00
2023-04-17T05:13:44.580Z,95.15
2023-04-17T05:25:45.075Z,94.18
2023-04-17T05:37:45.551Z,86.84
2023-04-17T05:49:45.979Z,84.90
2023-04-17T06:01:46.448Z,84.91
2023-04-17T06:13:46.947Z,81.07
2023-04-17T06:25:47.274Z,79.43
2023-04-17T06:37:47.774Z,78.56
2023-04-17T06:49:48.195Z,76.12
2023-04-17T07:01:48.677Z,74.44
2023-04-17T07:13:49.104Z,71.94
2023-04-17T07:25:49.613Z,68.59
2023-04-17T07:37:49.992Z,69.05
2023-04-17T07:49:50.507Z,68.05
2023-04-17T08:01:50.987Z,66.64
2023-04-17T08:13:51.364Z,66.13
2023-04-17T08:25:51.816Z,65.56
2023-04-17T08:37:52.286Z,62.75
2023-04-17T08:49:52.716Z,60.32
2023-04-17T09:01:53.266Z,59.71
2023-04-17T09:13:53.635Z,60.09
2023-04-17T09:25:54.152Z,58.09
2023-04-17T09:37:54.522Z,57.99
2023-04-17T09:49:54.982Z,56.92
2023-04-17T10:22:26.663Z,55.54
2023-04-17T10:34:27.138Z,55.37
2023-04-17T10:46:27.665Z,53.78
2023-04-17T10:58:31.662Z,55.29
2023-04-17T11:10:28.524Z,54.43
2023-04-17T11:22:28.953Z,53.42
2023-04-17T11:34:29.422Z,53.07
2023-04-17T11:46:29.985Z,57.03
2023-04-17T11:58:30.471Z,54.74
2023-04-17T12:10:30.792Z,54.61
2023-04-17T12:22:31.249Z,54.16
2023-04-17T12:34:31.690Z,53.63
2023-04-17T12:46:32.154Z,53.18
2023-04-17T13:08:48.234Z,52.45
2023-04-17T13:20:48.713Z,51.75
2023-04-17T13:32:49.197Z,51.23
2023-04-17T13:44:49.590Z,49.62
2023-04-17T13:56:50.038Z,49.92
2023-04-17T14:08:50.533Z,52.65
2023-04-17T14:20:50.920Z,51.32
2023-04-17T14:32:51.403Z,50.26
2023-04-17T14:44:51.849Z,51.30
2023-04-17T14:56:52.335Z,51.83
2023-04-17T15:08:52.831Z,53.27
2023-04-17T15:20:53.202Z,54.27
2023-04-17T15:32:53.697Z,54.82
2023-04-17T15:44:54.144Z,54.14
2023-04-17T15:56:54.554Z,53.68
2023-04-17T16:08:55.039Z,56.06
2023-04-17T16:20:55.532Z,57.48
2023-04-17T16:32:55.995Z,56.91
2023-04-17T16:44:56.403Z,58.35
2023-04-17T16:56:56.859Z,59.69
2023-04-17T17:08:57.309Z,59.67
2023-04-17T17:20:57.757Z,60.72
2023-04-17T17:32:58.196Z,63.30
2023-04-17T17:44:58.670Z,65.16
2023-04-17T17:56:59.123Z,65.40
2023-04-17T18:08:59.594Z,67.08
2023-04-17T18:21:00.033Z,67.18
2023-04-17T18:33:00.618Z,69.34
2023-04-17T18:45:00.982Z,69.70
2023-04-17T18:57:01.490Z,71.01
2023-04-17T19:09:01.829Z,72.42
2023-04-17T19:21:02.311Z,72.90
2023-04-17T19:33:02.784Z,72.86
2023-04-17T19:45:03.204Z,72.91
2023-04-17T19:57:03.635Z,72.93
2023-04-17T20:09:04.086Z,73.91
2023-04-17T20:21:04.559Z,75.36
2023-04-17T20:33:05.495Z,75.85
2023-04-17T20:45:05.446Z,75.09
2023-04-17T20:57:05.935Z,74.31
2023-04-17T21:09:06.400Z,75.05
2023-04-17T21:21:06.847Z,75.33
2023-04-17T21:33:07.267Z,75.40
2023-04-17T21:45:07.745Z,75.86
2023-04-17T21:57:08.191Z,75.25
2023-04-17T22:09:08.696Z,75.59
2023-04-17T22:21:09.082Z,76.94
2023-04-17T22:33:09.520Z,76.19
2023-04-17T22:45:10.020Z,76.34
2023-04-17T22:57:10.493Z,76.79
2023-04-17T23:09:10.907Z,77.70
2023-04-17T23:21:11.357Z,77.58
2023-04-17T23:33:11.789Z,77.33
2023-04-17T23:45:12.302Z,78.22
2023-04-17T23:57:12.703Z,77.54
